sensor_id;sensor_type;location;lat;lon;timestamp;P1;durP1;ratioP1;P2;durP2;ratioP2
69719;SDS011;56988;56.122;13.798;2024-02-28T00:00:06;37.40;;;9.07;;
69719;SDS011;56988;56.122;13.798;2024-02-28T00:02:07;23.10;;;9.53;;
69719;SDS011;56988;56.122;13.798;2024-02-28T00:03:07;25.52;;;9.57;;
69719;SDS011;56988;56.122;13.798;2024-02-28T00:04:07;26.43;;;9.90;;
69719;SDS011;56988;56.122;13.798;2024-02-28T00:05:08;27.33;;;10.23;;
69719;SDS011;56988;56.122;13.798;2024-02-28T00:06:08;25.10;;;9.77;;
69719;SDS011;56988;56.122;13.798;2024-02-28T00:07:09;23.70;;;9.73;;
69719;SDS011;56988;56.122;13.798;2024-02-28T00:08:09;22.55;;;9.82;;
69719;SDS011;56988;56.122;13.798;2024-02-28T00:09:10;27.35;;;10.13;;
69719;SDS011;56988;56.122;13.798;2024-02-28T00:10:11;28.42;;;9.98;;
69719;SDS011;56988;56.122;13.798;2024-02-28T00:11:11;27.95;;;10.23;;
69719;SDS011;56988;56.122;13.798;2024-02-28T00:12:11;23.35;;;9.35;;
69719;SDS011;56988;56.122;13.798;2024-02-28T00:13:11;24.35;;;9.23;;
69719;SDS011;56988;56.122;13.798;2024-02-28T00:14:12;26.47;;;8.67;;
69719;SDS011;56988;56.122;13.798;2024-02-28T00:15:12;33.22;;;10.25;;
69719;SDS011;56988;56.122;13.798;2024-02-28T00:16:13;24.47;;;9.87;;
69719;SDS011;56988;56.122;13.798;2024-02-28T00:17:13;28.50;;;9.67;;
69719;SDS011;56988;56.122;13.798;2024-02-28T00:18:13;22.27;;;8.63;;
69719;SDS011;56988;56.122;13.798;2024-02-28T00:19:13;28.37;;;9.53;;
69719;SDS011;56988;56.122;13.798;2024-02-28T00:20:14;23.58;;;9.50;;
69719;SDS011;56988;56.122;13.798;2024-02-28T00:21:14;26.25;;;9.48;;
69719;SDS011;56988;56.122;13.798;2024-02-28T00:22:14;23.98;;;9.98;;
69719;SDS011;56988;56.122;13.798;2024-02-28T00:23:14;26.08;;;9.20;;
69719;SDS011;56988;56.122;13.798;2024-02-28T00:24:15;25.83;;;9.30;;
69719;SDS011;56988;56.122;13.798;2024-02-28T00:25:15;23.43;;;9.57;;
69719;SDS011;56988;56.122;13.798;2024-02-28T00:26:15;21.02;;;10.15;;
69719;SDS011;56988;56.122;13.798;2024-02-28T00:27:16;20.05;;;8.65;;
69719;SDS011;56988;56.122;13.798;2024-02-28T00:28:16;25.65;;;9.52;;
69719;SDS011;56988;56.122;13.798;2024-02-28T00:29:16;24.63;;;9.37;;
69719;SDS011;56988;56.122;13.798;2024-02-28T00:30:17;26.17;;;9.73;;
69719;SDS011;56988;56.122;13.798;2024-02-28T00:31:17;23.42;;;9.35;;
69719;SDS011;56988;56.122;13.798;2024-02-28T00:32:17;24.42;;;9.10;;
69719;SDS011;56988;56.122;13.798;2024-02-28T00:33:18;24.35;;;9.55;;
69719;SDS011;56988;56.122;13.798;2024-02-28T00:34:18;21.13;;;9.57;;
69719;SDS011;56988;56.122;13.798;2024-02-28T00:35:18;25.58;;;10.05;;
69719;SDS011;56988;56.122;13.798;2024-02-28T00:36:18;25.10;;;9.77;;
69719;SDS011;56988;56.122;13.798;2024-02-28T00:37:18;27.40;;;9.37;;
69719;SDS011;56988;56.122;13.798;2024-02-28T00:38:19;26.27;;;10.30;;
69719;SDS011;56988;56.122;13.798;2024-02-28T00:39:19;21.27;;;9.07;;
69719;SDS011;56988;56.122;13.798;2024-02-28T00:40:19;26.03;;;10.13;;
69719;SDS011;56988;56.122;13.798;2024-02-28T00:41:19;27.40;;;10.50;;
69719;SDS011;56988;56.122;13.798;2024-02-28T00:42:20;24.97;;;10.17;;
69719;SDS011;56988;56.122;13.798;2024-02-28T00:43:20;24.43;;;9.90;;
69719;SDS011;56988;56.122;13.798;2024-02-28T00:44:20;28.93;;;10.67;;
69719;SDS011;56988;56.122;13.798;2024-02-28T00:45:20;25.52;;;10.65;;
69719;SDS011;56988;56.122;13.798;2024-02-28T00:46:20;27.03;;;11.17;;
69719;SDS011;56988;56.122;13.798;2024-02-28T00:47:21;26.63;;;10.40;;
69719;SDS011;56988;56.122;13.798;2024-02-28T00:48:22;30.17;;;10.15;;
69719;SDS011;56988;56.122;13.798;2024-02-28T00:50:22;27.27;;;10.13;;
69719;SDS011;56988;56.122;13.798;2024-02-28T00:51:22;26.67;;;10.43;;
69719;SDS011;56988;56.122;13.798;2024-02-28T00:52:22;30.23;;;11.07;;
69719;SDS011;56988;56.122;13.798;2024-02-28T00:53:25;38.33;;;10.82;;
69719;SDS011;56988;56.122;13.798;2024-02-28T00:54:25;24.93;;;10.67;;
69719;SDS011;56988;56.122;13.798;2024-02-28T00:55:26;25.42;;;10.23;;
69719;SDS011;56988;56.122;13.798;2024-02-28T00:56:26;30.80;;;10.57;;
69719;SDS011;56988;56.122;13.798;2024-02-28T00:57:27;25.42;;;10.65;;
69719;SDS011;56988;56.122;13.798;2024-02-28T00:58:27;23.97;;;9.80;;
69719;SDS011;56988;56.122;13.798;2024-02-28T00:59:29;30.20;;;10.57;;
69719;SDS011;56988;56.122;13.798;2024-02-28T01:00:30;24.87;;;10.80;;
69719;SDS011;56988;56.122;13.798;2024-02-28T01:01:30;25.13;;;11.23;;
69719;SDS011;56988;56.122;13.798;2024-02-28T01:02:31;27.80;;;10.18;;
69719;SDS011;56988;56.122;13.798;2024-02-28T01:03:31;28.33;;;10.15;;
69719;SDS011;56988;56.122;13.798;2024-02-28T01:04:32;27.05;;;10.85;;
69719;SDS011;56988;56.122;13.798;2024-02-28T01:05:32;24.67;;;11.13;;
69719;SDS011;56988;56.122;13.798;2024-02-28T01:06:33;24.58;;;10.70;;
69719;SDS011;56988;56.122;13.798;2024-02-28T01:07:33;24.67;;;10.85;;
69719;SDS011;56988;56.122;13.798;2024-02-28T01:08:33;29.60;;;10.63;;
69719;SDS011;56988;56.122;13.798;2024-02-28T01:09:33;24.47;;;10.43;;
69719;SDS011;56988;56.122;13.798;2024-02-28T01:10:33;25.80;;;11.25;;
69719;SDS011;56988;56.122;13.798;2024-02-28T01:11:34;23.85;;;9.40;;
69719;SDS011;56988;56.122;13.798;2024-02-28T01:12:34;23.03;;;9.53;;
69719;SDS011;56988;56.122;13.798;2024-02-28T01:13:34;19.60;;;9.45;;
69719;SDS011;56988;56.122;13.798;2024-02-28T01:14:35;24.63;;;9.43;;
69719;SDS011;56988;56.122;13.798;2024-02-28T01:15:35;22.53;;;10.33;;
69719;SDS011;56988;56.122;13.798;2024-02-28T01:16:35;21.47;;;10.10;;
69719;SDS011;56988;56.122;13.798;2024-02-28T01:17:35;26.23;;;10.97;;
69719;SDS011;56988;56.122;13.798;2024-02-28T01:18:35;25.67;;;9.90;;
69719;SDS011;56988;56.122;13.798;2024-02-28T01:19:36;28.30;;;11.70;;
69719;SDS011;56988;56.122;13.798;2024-02-28T01:20:36;23.33;;;10.40;;
69719;SDS011;56988;56.122;13.798;2024-02-28T01:21:36;22.27;;;11.20;;
69719;SDS011;56988;56.122;13.798;2024-02-28T01:22:38;24.45;;;10.57;;
69719;SDS011;56988;56.122;13.798;2024-02-28T01:23:38;21.50;;;10.10;;
69719;SDS011;56988;56.122;13.798;2024-02-28T01:24:38;20.55;;;9.60;;
69719;SDS011;56988;56.122;13.798;2024-02-28T01:25:38;26.97;;;10.57;;
69719;SDS011;56988;56.122;13.798;2024-02-28T01:26:39;25.27;;;10.37;;
69719;SDS011;56988;56.122;13.798;2024-02-28T01:28:40;23.93;;;9.87;;
69719;SDS011;56988;56.122;13.798;2024-02-28T01:29:42;23.50;;;9.45;;
69719;SDS011;56988;56.122;13.798;2024-02-28T01:30:43;23.43;;;10.03;;
69719;SDS011;56988;56.122;13.798;2024-02-28T01:31:43;20.85;;;9.73;;
69719;SDS011;56988;56.122;13.798;2024-02-28T01:32:43;23.30;;;10.50;;
69719;SDS011;56988;56.122;13.798;2024-02-28T01:33:43;24.20;;;9.97;;
69719;SDS011;56988;56.122;13.798;2024-02-28T01:34:43;21.40;;;9.67;;
69719;SDS011;56988;56.122;13.798;2024-02-28T01:35:44;19.77;;;9.27;;
69719;SDS011;56988;56.122;13.798;2024-02-28T01:36:44;26.30;;;10.13;;
69719;SDS011;56988;56.122;13.798;2024-02-28T01:37:44;20.42;;;9.98;;
69719;SDS011;56988;56.122;13.798;2024-02-28T01:38:44;24.10;;;10.48;;
69719;SDS011;56988;56.122;13.798;2024-02-28T01:39:45;23.07;;;10.43;;
69719;SDS011;56988;56.122;13.798;2024-02-28T01:40:45;26.63;;;10.90;;
69719;SDS011;56988;56.122;13.798;2024-02-28T01:41:55;22.52;;;10.05;;
69719;SDS011;56988;56.122;13.798;2024-02-28T01:43:01;23.52;;;10.00;;
69719;SDS011;56988;56.122;13.798;2024-02-28T01:44:01;23.30;;;10.20;;
69719;SDS011;56988;56.122;13.798;2024-02-28T01:45:02;26.05;;;10.55;;
69719;SDS011;56988;56.122;13.798;2024-02-28T01:46:03;23.25;;;10.63;;
69719;SDS011;56988;56.122;13.798;2024-02-28T01:47:04;22.98;;;10.40;;
69719;SDS011;56988;56.122;13.798;2024-02-28T01:48:05;22.42;;;10.10;;
69719;SDS011;56988;56.122;13.798;2024-02-28T01:49:06;23.70;;;11.30;;
69719;SDS011;56988;56.122;13.798;2024-02-28T01:50:07;24.23;;;10.82;;
69719;SDS011;56988;56.122;13.798;2024-02-28T01:51:07;26.15;;;11.13;;
69719;SDS011;56988;56.122;13.798;2024-02-28T01:52:08;22.23;;;10.10;;
69719;SDS011;56988;56.122;13.798;2024-02-28T01:53:08;23.65;;;10.90;;
69719;SDS011;56988;56.122;13.798;2024-02-28T01:54:09;27.17;;;10.63;;
69719;SDS011;56988;56.122;13.798;2024-02-28T01:55:10;20.55;;;9.88;;
69719;SDS011;56988;56.122;13.798;2024-02-28T01:56:11;27.27;;;10.77;;
69719;SDS011;56988;56.122;13.798;2024-02-28T01:57:11;25.70;;;10.43;;
69719;SDS011;56988;56.122;13.798;2024-02-28T01:58:12;28.27;;;11.43;;
69719;SDS011;56988;56.122;13.798;2024-02-28T01:59:12;28.70;;;10.52;;
69719;SDS011;56988;56.122;13.798;2024-02-28T02:00:13;23.33;;;10.82;;
69719;SDS011;56988;56.122;13.798;2024-02-28T02:01:14;23.25;;;10.45;;
69719;SDS011;56988;56.122;13.798;2024-02-28T02:02:14;22.65;;;9.98;;
69719;SDS011;56988;56.122;13.798;2024-02-28T02:03:15;21.77;;;9.60;;
69719;SDS011;56988;56.122;13.798;2024-02-28T02:04:15;23.27;;;10.02;;
69719;SDS011;56988;56.122;13.798;2024-02-28T02:05:15;27.33;;;11.70;;
69719;SDS011;56988;56.122;13.798;2024-02-28T02:06:16;23.27;;;10.43;;
69719;SDS011;56988;56.122;13.798;2024-02-28T02:07:16;22.40;;;10.50;;
69719;SDS011;56988;56.122;13.798;2024-02-28T02:08:16;24.47;;;10.00;;
69719;SDS011;56988;56.122;13.798;2024-02-28T02:09:16;23.42;;;10.35;;
69719;SDS011;56988;56.122;13.798;2024-02-28T02:10:17;26.23;;;10.97;;
69719;SDS011;56988;56.122;13.798;2024-02-28T02:11:17;28.05;;;10.35;;
69719;SDS011;56988;56.122;13.798;2024-02-28T02:12:20;23.75;;;10.75;;
69719;SDS011;56988;56.122;13.798;2024-02-28T02:13:21;26.88;;;10.48;;
69719;SDS011;56988;56.122;13.798;2024-02-28T02:14:21;21.37;;;9.80;;
69719;SDS011;56988;56.122;13.798;2024-02-28T02:15:21;22.80;;;9.73;;
69719;SDS011;56988;56.122;13.798;2024-02-28T02:16:21;21.95;;;9.48;;
69719;SDS011;56988;56.122;13.798;2024-02-28T02:17:22;23.35;;;10.52;;
69719;SDS011;56988;56.122;13.798;2024-02-28T02:18:22;21.77;;;9.70;;
69719;SDS011;56988;56.122;13.798;2024-02-28T02:19:22;21.83;;;10.57;;
69719;SDS011;56988;56.122;13.798;2024-02-28T02:20:23;21.65;;;10.15;;
69719;SDS011;56988;56.122;13.798;2024-02-28T02:21:30;25.48;;;10.75;;
69719;SDS011;56988;56.122;13.798;2024-02-28T02:22:37;23.98;;;10.80;;
69719;SDS011;56988;56.122;13.798;2024-02-28T02:23:38;20.70;;;9.48;;
69719;SDS011;56988;56.122;13.798;2024-02-28T02:24:41;23.83;;;9.80;;
69719;SDS011;56988;56.122;13.798;2024-02-28T02:25:45;22.08;;;9.95;;
69719;SDS011;56988;56.122;13.798;2024-02-28T02:26:45;25.05;;;10.50;;
69719;SDS011;56988;56.122;13.798;2024-02-28T02:27:46;24.85;;;10.88;;
69719;SDS011;56988;56.122;13.798;2024-02-28T02:28:48;20.55;;;10.02;;
69719;SDS011;56988;56.122;13.798;2024-02-28T02:29:48;24.53;;;10.60;;
69719;SDS011;56988;56.122;13.798;2024-02-28T02:30:48;26.43;;;10.07;;
69719;SDS011;56988;56.122;13.798;2024-02-28T02:31:49;25.65;;;10.90;;
69719;SDS011;56988;56.122;13.798;2024-02-28T02:32:49;26.77;;;11.50;;
69719;SDS011;56988;56.122;13.798;2024-02-28T02:33:49;26.27;;;11.57;;
69719;SDS011;56988;56.122;13.798;2024-02-28T02:34:50;24.73;;;10.88;;
69719;SDS011;56988;56.122;13.798;2024-02-28T02:35:51;23.73;;;10.32;;
69719;SDS011;56988;56.122;13.798;2024-02-28T02:36:52;22.65;;;9.93;;
69719;SDS011;56988;56.122;13.798;2024-02-28T02:37:52;26.07;;;10.27;;
69719;SDS011;56988;56.122;13.798;2024-02-28T02:38:52;28.87;;;10.93;;
69719;SDS011;56988;56.122;13.798;2024-02-28T02:39:52;23.53;;;11.17;;
69719;SDS011;56988;56.122;13.798;2024-02-28T02:40:53;27.63;;;10.30;;
69719;SDS011;56988;56.122;13.798;2024-02-28T02:41:53;23.23;;;10.85;;
69719;SDS011;56988;56.122;13.798;2024-02-28T02:42:54;24.88;;;10.55;;
69719;SDS011;56988;56.122;13.798;2024-02-28T02:43:54;24.40;;;10.40;;
69719;SDS011;56988;56.122;13.798;2024-02-28T02:44:54;27.20;;;10.50;;
69719;SDS011;56988;56.122;13.798;2024-02-28T02:45:54;24.70;;;10.63;;
69719;SDS011;56988;56.122;13.798;2024-02-28T02:46:55;24.98;;;10.43;;
69719;SDS011;56988;56.122;13.798;2024-02-28T02:47:55;24.70;;;10.77;;
69719;SDS011;56988;56.122;13.798;2024-02-28T02:48:55;26.13;;;9.60;;
69719;SDS011;56988;56.122;13.798;2024-02-28T02:49:55;24.47;;;9.93;;
69719;SDS011;56988;56.122;13.798;2024-02-28T02:50:55;25.80;;;9.77;;
69719;SDS011;56988;56.122;13.798;2024-02-28T02:51:56;23.65;;;10.35;;
69719;SDS011;56988;56.122;13.798;2024-02-28T02:52:56;25.60;;;11.30;;
69719;SDS011;56988;56.122;13.798;2024-02-28T02:53:56;23.85;;;10.48;;
69719;SDS011;56988;56.122;13.798;2024-02-28T02:54:56;26.13;;;10.33;;
69719;SDS011;56988;56.122;13.798;2024-02-28T02:55:56;26.23;;;10.47;;
69719;SDS011;56988;56.122;13.798;2024-02-28T02:56:57;25.52;;;10.60;;
69719;SDS011;56988;56.122;13.798;2024-02-28T02:57:57;24.70;;;10.57;;
69719;SDS011;56988;56.122;13.798;2024-02-28T02:58:57;24.60;;;10.00;;
69719;SDS011;56988;56.122;13.798;2024-02-28T02:59:57;26.17;;;10.37;;
69719;SDS011;56988;56.122;13.798;2024-02-28T03:00:58;24.17;;;9.82;;
69719;SDS011;56988;56.122;13.798;2024-02-28T03:01:58;28.23;;;11.10;;
69719;SDS011;56988;56.122;13.798;2024-02-28T03:02:58;24.80;;;10.48;;
69719;SDS011;56988;56.122;13.798;2024-02-28T03:03:58;24.27;;;9.83;;
69719;SDS011;56988;56.122;13.798;2024-02-28T03:04:58;24.20;;;10.70;;
69719;SDS011;56988;56.122;13.798;2024-02-28T03:05:59;26.97;;;10.47;;
69719;SDS011;56988;56.122;13.798;2024-02-28T03:06:59;20.53;;;9.70;;
69719;SDS011;56988;56.122;13.798;2024-02-28T03:07:59;22.10;;;9.95;;
69719;SDS011;56988;56.122;13.798;2024-02-28T03:08:59;24.95;;;10.30;;
69719;SDS011;56988;56.122;13.798;2024-02-28T03:10:00;22.77;;;9.68;;
69719;SDS011;56988;56.122;13.798;2024-02-28T03:11:00;23.70;;;10.85;;
69719;SDS011;56988;56.122;13.798;2024-02-28T03:12:00;23.58;;;10.00;;
69719;SDS011;56988;56.122;13.798;2024-02-28T03:13:00;26.90;;;11.00;;
69719;SDS011;56988;56.122;13.798;2024-02-28T03:14:01;25.17;;;11.43;;
69719;SDS011;56988;56.122;13.798;2024-02-28T03:15:02;24.33;;;10.35;;
69719;SDS011;56988;56.122;13.798;2024-02-28T03:16:03;21.33;;;9.38;;
69719;SDS011;56988;56.122;13.798;2024-02-28T03:17:04;22.38;;;10.10;;
69719;SDS011;56988;56.122;13.798;2024-02-28T03:18:04;23.15;;;10.27;;
69719;SDS011;56988;56.122;13.798;2024-02-28T03:19:04;21.08;;;9.52;;
69719;SDS011;56988;56.122;13.798;2024-02-28T03:20:05;24.75;;;10.35;;
69719;SDS011;56988;56.122;13.798;2024-02-28T03:21:07;22.15;;;9.55;;
69719;SDS011;56988;56.122;13.798;2024-02-28T03:22:08;22.73;;;10.00;;
69719;SDS011;56988;56.122;13.798;2024-02-28T03:23:08;21.42;;;9.50;;
69719;SDS011;56988;56.122;13.798;2024-02-28T03:24:08;22.67;;;9.33;;
69719;SDS011;56988;56.122;13.798;2024-02-28T03:25:08;19.70;;;9.17;;
69719;SDS011;56988;56.122;13.798;2024-02-28T03:26:09;23.48;;;9.85;;
69719;SDS011;56988;56.122;13.798;2024-02-28T03:27:09;24.47;;;10.20;;
69719;SDS011;56988;56.122;13.798;2024-02-28T03:28:09;27.17;;;10.90;;
69719;SDS011;56988;56.122;13.798;2024-02-28T03:29:09;20.23;;;9.40;;
69719;SDS011;56988;56.122;13.798;2024-02-28T03:30:10;23.33;;;9.85;;
69719;SDS011;56988;56.122;13.798;2024-02-28T03:31:10;20.58;;;8.68;;
69719;SDS011;56988;56.122;13.798;2024-02-28T03:32:10;21.60;;;9.50;;
69719;SDS011;56988;56.122;13.798;2024-02-28T03:33:11;24.88;;;9.95;;
69719;SDS011;56988;56.122;13.798;2024-02-28T03:34:11;26.70;;;10.17;;
69719;SDS011;56988;56.122;13.798;2024-02-28T03:35:11;24.63;;;9.60;;
69719;SDS011;56988;56.122;13.798;2024-02-28T03:36:11;21.97;;;9.53;;
69719;SDS011;56988;56.122;13.798;2024-02-28T03:37:11;20.60;;;9.23;;
69719;SDS011;56988;56.122;13.798;2024-02-28T03:38:12;22.73;;;9.70;;
69719;SDS011;56988;56.122;13.798;2024-02-28T03:39:12;18.85;;;9.60;;
69719;SDS011;56988;56.122;13.798;2024-02-28T03:40:12;21.07;;;9.27;;
69719;SDS011;56988;56.122;13.798;2024-02-28T03:41:12;21.47;;;9.07;;
69719;SDS011;56988;56.122;13.798;2024-02-28T03:42:12;20.75;;;9.02;;
69719;SDS011;56988;56.122;13.798;2024-02-28T03:43:13;19.70;;;9.07;;
69719;SDS011;56988;56.122;13.798;2024-02-28T03:44:13;23.05;;;9.57;;
69719;SDS011;56988;56.122;13.798;2024-02-28T03:45:13;22.08;;;9.48;;
69719;SDS011;56988;56.122;13.798;2024-02-28T03:46:14;20.17;;;9.37;;
69719;SDS011;56988;56.122;13.798;2024-02-28T03:47:14;19.67;;;9.38;;
69719;SDS011;56988;56.122;13.798;2024-02-28T03:48:14;21.73;;;9.52;;
69719;SDS011;56988;56.122;13.798;2024-02-28T03:49:14;20.60;;;8.20;;
69719;SDS011;56988;56.122;13.798;2024-02-28T03:50:15;21.37;;;9.00;;
69719;SDS011;56988;56.122;13.798;2024-02-28T03:51:15;20.40;;;8.82;;
69719;SDS011;56988;56.122;13.798;2024-02-28T03:52:15;16.47;;;8.23;;
69719;SDS011;56988;56.122;13.798;2024-02-28T03:53:15;17.07;;;8.27;;
69719;SDS011;56988;56.122;13.798;2024-02-28T03:54:15;19.52;;;8.15;;
69719;SDS011;56988;56.122;13.798;2024-02-28T03:55:16;17.75;;;8.88;;
69719;SDS011;56988;56.122;13.798;2024-02-28T03:56:23;17.98;;;8.80;;
69719;SDS011;56988;56.122;13.798;2024-02-28T03:57:24;17.67;;;7.78;;
69719;SDS011;56988;56.122;13.798;2024-02-28T03:58:24;19.17;;;8.07;;
69719;SDS011;56988;56.122;13.798;2024-02-28T03:59:25;17.88;;;8.65;;
69719;SDS011;56988;56.122;13.798;2024-02-28T04:00:25;20.20;;;8.95;;
69719;SDS011;56988;56.122;13.798;2024-02-28T04:01:26;20.27;;;9.05;;
69719;SDS011;56988;56.122;13.798;2024-02-28T04:02:26;19.27;;;8.20;;
69719;SDS011;56988;56.122;13.798;2024-02-28T04:03:26;18.03;;;9.07;;
69719;SDS011;56988;56.122;13.798;2024-02-28T04:04:26;19.90;;;8.73;;
69719;SDS011;56988;56.122;13.798;2024-02-28T04:05:26;17.27;;;8.57;;
69719;SDS011;56988;56.122;13.798;2024-02-28T04:06:27;19.23;;;9.17;;
69719;SDS011;56988;56.122;13.798;2024-02-28T04:07:27;21.42;;;8.93;;
69719;SDS011;56988;56.122;13.798;2024-02-28T04:08:27;19.90;;;9.13;;
69719;SDS011;56988;56.122;13.798;2024-02-28T04:09:27;20.67;;;8.77;;
69719;SDS011;56988;56.122;13.798;2024-02-28T04:10:27;17.87;;;9.00;;
69719;SDS011;56988;56.122;13.798;2024-02-28T04:11:28;20.10;;;8.80;;
69719;SDS011;56988;56.122;13.798;2024-02-28T04:12:28;18.80;;;8.32;;
69719;SDS011;56988;56.122;13.798;2024-02-28T04:13:29;19.23;;;9.10;;
69719;SDS011;56988;56.122;13.798;2024-02-28T04:14:29;16.73;;;8.17;;
69719;SDS011;56988;56.122;13.798;2024-02-28T04:15:30;17.10;;;8.48;;
69719;SDS011;56988;56.122;13.798;2024-02-28T04:16:30;18.23;;;8.65;;
69719;SDS011;56988;56.122;13.798;2024-02-28T04:17:31;17.98;;;8.95;;
69719;SDS011;56988;56.122;13.798;2024-02-28T04:18:31;18.50;;;8.50;;
69719;SDS011;56988;56.122;13.798;2024-02-28T04:19:34;19.17;;;8.50;;
69719;SDS011;56988;56.122;13.798;2024-02-28T04:20:39;19.15;;;8.77;;
69719;SDS011;56988;56.122;13.798;2024-02-28T04:21:39;18.38;;;9.07;;
69719;SDS011;56988;56.122;13.798;2024-02-28T04:22:39;20.47;;;8.97;;
69719;SDS011;56988;56.122;13.798;2024-02-28T04:23:40;18.13;;;8.60;;
69719;SDS011;56988;56.122;13.798;2024-02-28T04:24:41;16.67;;;8.18;;
69719;SDS011;56988;56.122;13.798;2024-02-28T04:25:41;18.87;;;8.90;;
69719;SDS011;56988;56.122;13.798;2024-02-28T04:26:42;17.90;;;8.57;;
69719;SDS011;56988;56.122;13.798;2024-02-28T04:27:42;18.43;;;8.53;;
69719;SDS011;56988;56.122;13.798;2024-02-28T04:28:43;21.23;;;9.07;;
69719;SDS011;56988;56.122;13.798;2024-02-28T04:29:43;18.17;;;8.63;;
69719;SDS011;56988;56.122;13.798;2024-02-28T04:30:44;16.83;;;8.73;;
69719;SDS011;56988;56.122;13.798;2024-02-28T04:31:44;18.97;;;8.43;;
69719;SDS011;56988;56.122;13.798;2024-02-28T04:32:44;18.00;;;8.63;;
69719;SDS011;56988;56.122;13.798;2024-02-28T04:33:44;20.40;;;8.63;;
69719;SDS011;56988;56.122;13.798;2024-02-28T04:34:44;17.58;;;7.97;;
69719;SDS011;56988;56.122;13.798;2024-02-28T04:35:45;23.00;;;9.00;;
69719;SDS011;56988;56.122;13.798;2024-02-28T04:36:45;19.47;;;9.10;;
69719;SDS011;56988;56.122;13.798;2024-02-28T04:37:45;18.23;;;8.63;;
69719;SDS011;56988;56.122;13.798;2024-02-28T04:38:46;22.42;;;8.93;;
69719;SDS011;56988;56.122;13.798;2024-02-28T04:39:46;20.57;;;8.93;;
69719;SDS011;56988;56.122;13.798;2024-02-28T04:40:46;20.77;;;8.90;;
69719;SDS011;56988;56.122;13.798;2024-02-28T04:41:46;22.55;;;8.43;;
69719;SDS011;56988;56.122;13.798;2024-02-28T04:42:47;17.73;;;7.57;;
69719;SDS011;56988;56.122;13.798;2024-02-28T04:43:47;20.57;;;9.33;;
69719;SDS011;56988;56.122;13.798;2024-02-28T04:44:47;19.20;;;8.27;;
69719;SDS011;56988;56.122;13.798;2024-02-28T04:45:47;23.37;;;9.20;;
69719;SDS011;56988;56.122;13.798;2024-02-28T04:46:47;16.60;;;8.23;;
69719;SDS011;56988;56.122;13.798;2024-02-28T04:47:48;19.47;;;8.73;;
69719;SDS011;56988;56.122;13.798;2024-02-28T04:48:48;22.15;;;9.57;;
69719;SDS011;56988;56.122;13.798;2024-02-28T04:49:48;17.33;;;8.33;;
69719;SDS011;56988;56.122;13.798;2024-02-28T04:50:48;16.77;;;8.40;;
69719;SDS011;56988;56.122;13.798;2024-02-28T04:51:48;19.13;;;8.40;;
69719;SDS011;56988;56.122;13.798;2024-02-28T04:52:49;19.02;;;8.63;;
69719;SDS011;56988;56.122;13.798;2024-02-28T04:53:49;21.08;;;8.88;;
69719;SDS011;56988;56.122;13.798;2024-02-28T04:54:49;18.60;;;8.93;;
69719;SDS011;56988;56.122;13.798;2024-02-28T04:55:49;21.93;;;9.10;;
69719;SDS011;56988;56.122;13.798;2024-02-28T04:56:50;16.77;;;7.97;;
69719;SDS011;56988;56.122;13.798;2024-02-28T04:57:51;19.08;;;8.82;;
69719;SDS011;56988;56.122;13.798;2024-02-28T04:58:51;16.70;;;8.18;;
69719;SDS011;56988;56.122;13.798;2024-02-28T04:59:51;17.27;;;8.13;;
69719;SDS011;56988;56.122;13.798;2024-02-28T05:00:52;20.77;;;9.15;;
69719;SDS011;56988;56.122;13.798;2024-02-28T05:01:52;19.92;;;8.52;;
69719;SDS011;56988;56.122;13.798;2024-02-28T05:02:52;20.20;;;8.87;;
69719;SDS011;56988;56.122;13.798;2024-02-28T05:03:52;22.37;;;9.30;;
69719;SDS011;56988;56.122;13.798;2024-02-28T05:04:53;21.40;;;9.45;;
69719;SDS011;56988;56.122;13.798;2024-02-28T05:05:53;19.77;;;8.33;;
69719;SDS011;56988;56.122;13.798;2024-02-28T05:06:53;21.37;;;8.60;;
69719;SDS011;56988;56.122;13.798;2024-02-28T05:07:53;19.63;;;8.73;;
69719;SDS011;56988;56.122;13.798;2024-02-28T05:08:54;18.15;;;8.50;;
69719;SDS011;56988;56.122;13.798;2024-02-28T05:09:54;19.20;;;8.98;;
69719;SDS011;56988;56.122;13.798;2024-02-28T05:10:54;18.77;;;8.80;;
69719;SDS011;56988;56.122;13.798;2024-02-28T05:11:54;20.83;;;9.07;;
69719;SDS011;56988;56.122;13.798;2024-02-28T05:12:55;19.73;;;8.73;;
69719;SDS011;56988;56.122;13.798;2024-02-28T05:13:55;20.25;;;8.90;;
69719;SDS011;56988;56.122;13.798;2024-02-28T05:14:55;19.07;;;8.53;;
69719;SDS011;56988;56.122;13.798;2024-02-28T05:15:55;21.20;;;9.63;;
69719;SDS011;56988;56.122;13.798;2024-02-28T05:16:55;19.87;;;9.03;;
69719;SDS011;56988;56.122;13.798;2024-02-28T05:17:56;19.60;;;9.05;;
69719;SDS011;56988;56.122;13.798;2024-02-28T05:18:56;22.27;;;9.27;;
69719;SDS011;56988;56.122;13.798;2024-02-28T05:19:56;22.77;;;9.23;;
69719;SDS011;56988;56.122;13.798;2024-02-28T05:20:57;19.50;;;8.50;;
69719;SDS011;56988;56.122;13.798;2024-02-28T05:21:57;22.73;;;10.32;;
69719;SDS011;56988;56.122;13.798;2024-02-28T05:22:58;20.30;;;10.00;;
69719;SDS011;56988;56.122;13.798;2024-02-28T05:23:58;19.73;;;9.23;;
69719;SDS011;56988;56.122;13.798;2024-02-28T05:24:58;22.83;;;10.10;;
69719;SDS011;56988;56.122;13.798;2024-02-28T05:25:59;19.57;;;8.87;;
69719;SDS011;56988;56.122;13.798;2024-02-28T05:27:03;18.27;;;8.85;;
69719;SDS011;56988;56.122;13.798;2024-02-28T05:28:04;20.53;;;9.80;;
69719;SDS011;56988;56.122;13.798;2024-02-28T05:29:04;19.45;;;9.27;;
69719;SDS011;56988;56.122;13.798;2024-02-28T05:30:05;19.55;;;8.60;;
69719;SDS011;56988;56.122;13.798;2024-02-28T05:31:26;18.95;;;8.93;;
69719;SDS011;56988;56.122;13.798;2024-02-28T05:32:26;18.27;;;8.57;;
69719;SDS011;56988;56.122;13.798;2024-02-28T05:33:26;18.60;;;8.67;;
69719;SDS011;56988;56.122;13.798;2024-02-28T05:34:26;20.65;;;8.77;;
69719;SDS011;56988;56.122;13.798;2024-02-28T05:35:26;20.30;;;8.80;;
69719;SDS011;56988;56.122;13.798;2024-02-28T05:36:27;20.17;;;9.53;;
69719;SDS011;56988;56.122;13.798;2024-02-28T05:38:28;20.37;;;9.73;;
69719;SDS011;56988;56.122;13.798;2024-02-28T05:39:28;19.10;;;9.23;;
69719;SDS011;56988;56.122;13.798;2024-02-28T05:40:31;23.90;;;10.95;;
69719;SDS011;56988;56.122;13.798;2024-02-28T05:41:31;24.17;;;10.37;;
69719;SDS011;56988;56.122;13.798;2024-02-28T05:42:32;22.38;;;9.77;;
69719;SDS011;56988;56.122;13.798;2024-02-28T05:43:32;22.40;;;10.17;;
69719;SDS011;56988;56.122;13.798;2024-02-28T05:44:32;21.53;;;10.37;;
69719;SDS011;56988;56.122;13.798;2024-02-28T05:45:32;25.60;;;11.57;;
69719;SDS011;56988;56.122;13.798;2024-02-28T05:46:33;22.17;;;10.07;;
69719;SDS011;56988;56.122;13.798;2024-02-28T05:47:33;22.40;;;10.97;;
69719;SDS011;56988;56.122;13.798;2024-02-28T05:48:34;24.40;;;11.13;;
69719;SDS011;56988;56.122;13.798;2024-02-28T05:49:34;26.30;;;10.77;;
69719;SDS011;56988;56.122;13.798;2024-02-28T05:50:34;20.00;;;9.55;;
69719;SDS011;56988;56.122;13.798;2024-02-28T05:51:34;23.70;;;10.20;;
69719;SDS011;56988;56.122;13.798;2024-02-28T05:52:36;21.45;;;9.73;;
69719;SDS011;56988;56.122;13.798;2024-02-28T05:53:36;23.83;;;10.55;;
69719;SDS011;56988;56.122;13.798;2024-02-28T05:54:38;25.52;;;11.23;;
69719;SDS011;56988;56.122;13.798;2024-02-28T05:55:39;23.23;;;11.43;;